Time;durP1;ratioP1;P1;durP2;ratioP2;P2;SDS_P1;SDS_P2;PMS_P1;PMS_P2;Temp;Humidity;BMP_temperature;BMP_pressure;BME280_temperature;BME280_humidity;BME280_pressure;Samples;Min_cycle;Max_cycle;Signal;HPM_P1;HPM_P2
2022/06/12 00:02:20;;;;;;;1.88;0.57;;;;;;;;;;5042875;28;20104;-66
2022/06/12 00:04:46;;;;;;;1.33;0.40;;;;;;;;;;5043886;28;20058;-67
2022/06/12 00:07:13;;;;;;;2.67;0.52;;;;;;;;;;5046013;28;20124;-66
2022/06/12 00:09:39;;;;;;;2.92;0.60;;;;;;;;;;5043919;28;20064;-67
2022/06/12 00:12:07;;;;;;;5.55;2.10;;;;;;;;;;5026442;28;20047;-69
2022/06/12 00:14:33;;;;;;;3.63;1.27;;;;;;;;;;5045198;28;20033;-68
2022/06/12 00:17:00;;;;;;;2.63;0.80;;;;;;;;;;5045104;28;20040;-69
2022/06/12 00:19:30;;;;;;;4.40;1.02;;;;;;;;;;5043017;28;20116;-69
2022/06/12 00:21:57;;;;;;;2.70;0.70;;;;;;;;;;5046556;28;20053;-69
2022/06/12 00:24:24;;;;;;;1.58;0.50;;;;;;;;;;5045426;28;20049;-67
2022/06/12 00:26:52;;;;;;;4.10;0.60;;;;;;;;;;5036406;28;20261;-68
2022/06/12 00:29:21;;;;;;;3.33;0.60;;;;;;;;;;5026041;28;20065;-69
2022/06/12 00:31:49;;;;;;;5.45;0.88;;;;;;;;;;5044440;28;20037;-68
2022/06/12 00:34:17;;;;;;;7.55;2.00;;;;;;;;;;5044938;28;20071;-68
2022/06/12 00:36:44;;;;;;;2.08;0.70;;;;;;;;;;5031969;28;20946;-68
2022/06/12 00:39:11;;;;;;;1.73;0.50;;;;;;;;;;5043710;28;20401;-68
2022/06/12 00:41:41;;;;;;;11.85;0.80;;;;;;;;;;5042802;28;20093;-68
2022/06/12 00:44:08;;;;;;;2.10;0.60;;;;;;;;;;5014255;28;20044;-67
2022/06/12 00:46:41;;;;;;;3.42;0.70;;;;;;;;;;5023863;28;20087;-68
2022/06/12 00:49:10;;;;;;;3.58;0.60;;;;;;;;;;5023481;28;20037;-67
2022/06/12 00:51:38;;;;;;;3.72;0.63;;;;;;;;;;5026648;28;21743;-68
2022/06/12 00:54:04;;;;;;;4.60;0.70;;;;;;;;;;5027414;28;20044;-67
2022/06/12 00:56:33;;;;;;;1.23;0.35;;;;;;;;;;5024187;28;20061;-67
2022/06/12 00:59:02;;;;;;;7.30;0.60;;;;;;;;;;5022344;28;20075;-68
2022/06/12 01:01:31;;;;;;;2.50;0.55;;;;;;;;;;5023558;28;20079;-67
2022/06/12 01:06:48;;;;;;;1.90;0.60;;;;;;;;;;5050017;28;20055;-68
2022/06/12 01:09:17;;;;;;;5.50;0.50;;;;;;;;;;5054295;28;20049;-68
2022/06/12 01:11:46;;;;;;;4.97;0.70;;;;;;;;;;5022554;28;20073;-68
2022/06/12 01:14:15;;;;;;;7.55;0.70;;;;;;;;;;5027449;28;20106;-67
2022/06/12 01:16:48;;;;;;;4.05;0.60;;;;;;;;;;5025419;28;20064;-67
2022/06/12 01:19:34;;;;;;;3.47;0.57;;;;;;;;;;5021258;28;20041;-66
2022/06/12 01:22:01;;;;;;;3.28;0.70;;;;;;;;;;5022209;28;20129;-66
2022/06/12 01:24:29;;;;;;;1.98;0.60;;;;;;;;;;5032154;28;20044;-67
2022/06/12 01:27:04;;;;;;;2.90;0.55;;;;;;;;;;5042562;28;20068;-67
2022/06/12 01:29:40;;;;;;;1.67;0.55;;;;;;;;;;5042188;28;20422;-68
2022/06/12 01:32:15;;;;;;;5.85;0.70;;;;;;;;;;5044519;28;20082;-67
2022/06/12 01:34:57;;;;;;;0.85;0.40;;;;;;;;;;5048125;28;20044;-68
2022/06/12 01:37:30;;;;;;;1.50;0.50;;;;;;;;;;5045195;28;20040;-68
2022/06/12 01:40:05;;;;;;;1.63;0.50;;;;;;;;;;5034073;28;21762;-65
2022/06/12 01:42:37;;;;;;;2.70;0.60;;;;;;;;;;5028218;28;20075;-67
2022/06/12 01:45:07;;;;;;;1.08;0.40;;;;;;;;;;5060160;28;20087;-67
2022/06/12 01:47:42;;;;;;;1.13;0.40;;;;;;;;;;5043256;28;20129;-67
2022/06/12 01:50:09;;;;;;;1.17;0.45;;;;;;;;;;5046099;28;20087;-67
2022/06/12 01:52:59;;;;;;;2.08;0.50;;;;;;;;;;5046310;28;20036;-68
2022/06/12 01:55:41;;;;;;;1.90;0.43;;;;;;;;;;5043368;28;20033;-68
2022/06/12 01:58:11;;;;;;;1.70;0.50;;;;;;;;;;5045220;28;20577;-67
2022/06/12 02:00:38;;;;;;;2.72;0.50;;;;;;;;;;5043613;28;20037;-66
2022/06/12 02:03:11;;;;;;;1.02;0.40;;;;;;;;;;5043136;28;20569;-67
2022/06/12 02:05:38;;;;;;;1.33;0.40;;;;;;;;;;5039378;28;20041;-67
2022/06/12 02:08:24;;;;;;;0.55;0.32;;;;;;;;;;5032418;28;20041;-67
2022/06/12 02:10:57;;;;;;;1.60;0.50;;;;;;;;;;5027555;28;20071;-66
2022/06/12 02:13:30;;;;;;;1.15;0.40;;;;;;;;;;5032311;28;20052;-66
2022/06/12 02:16:05;;;;;;;1.77;0.57;;;;;;;;;;5025031;28;20049;-67
2022/06/12 02:18:42;;;;;;;1.77;0.40;;;;;;;;;;5022876;28;20049;-67
2022/06/12 02:21:15;;;;;;;1.25;0.40;;;;;;;;;;5024850;28;20413;-66
2022/06/12 02:23:51;;;;;;;1.85;0.60;;;;;;;;;;5021935;28;20061;-67
2022/06/12 02:26:36;;;;;;;1.60;0.40;;;;;;;;;;5024132;28;20051;-66
2022/06/12 02:29:06;;;;;;;1.10;0.40;;;;;;;;;;5035978;28;20048;-67
2022/06/12 02:31:35;;;;;;;1.02;0.40;;;;;;;;;;5024260;28;20455;-66
2022/06/12 02:34:05;;;;;;;1.13;0.38;;;;;;;;;;5024261;28;20102;-66
2022/06/12 02:36:34;;;;;;;0.98;0.40;;;;;;;;;;5022922;28;20040;-66
2022/06/12 02:39:03;;;;;;;3.38;0.50;;;;;;;;;;5016592;28;20087;-67
2022/06/12 02:41:29;;;;;;;1.48;0.50;;;;;;;;;;5025144;28;21769;-66
2022/06/12 02:43:57;;;;;;;1.30;0.40;;;;;;;;;;5022280;28;20561;-66
2022/06/12 02:46:36;;;;;;;1.25;0.40;;;;;;;;;;5023744;28;20044;-66
2022/06/12 02:49:03;;;;;;;1.20;0.40;;;;;;;;;;5022771;28;20111;-68
2022/06/12 02:51:39;;;;;;;1.27;0.45;;;;;;;;;;5027393;28;20410;-67
2022/06/12 02:54:24;;;;;;;1.83;0.50;;;;;;;;;;5028883;28;20813;-66
2022/06/12 02:56:57;;;;;;;1.63;0.50;;;;;;;;;;5021091;28;20151;-67
2022/06/12 02:59:25;;;;;;;2.05;0.40;;;;;;;;;;5026107;28;20199;-67
2022/06/12 03:01:57;;;;;;;1.95;0.40;;;;;;;;;;5028469;28;20061;-67
2022/06/12 03:04:46;;;;;;;3.33;0.63;;;;;;;;;;5027941;28;20048;-68
2022/06/12 03:07:13;;;;;;;1.50;0.50;;;;;;;;;;5027854;28;20787;-68
2022/06/12 03:09:39;;;;;;;1.85;0.50;;;;;;;;;;5028490;28;20114;-67
2022/06/12 03:12:07;;;;;;;1.17;0.47;;;;;;;;;;5029726;28;20049;-68
2022/06/12 03:14:34;;;;;;;0.90;0.40;;;;;;;;;;5028237;28;20069;-67
2022/06/12 03:17:00;;;;;;;3.05;0.63;;;;;;;;;;5028121;28;20037;-68
2022/06/12 03:19:29;;;;;;;1.67;0.50;;;;;;;;;;5042664;28;20037;-65
2022/06/12 03:22:15;;;;;;;1.40;0.43;;;;;;;;;;5027692;28;20045;-67
2022/06/12 03:25:02;;;;;;;1.83;0.60;;;;;;;;;;5020709;28;20080;-65
2022/06/12 03:27:47;;;;;;;1.35;0.50;;;;;;;;;;5026301;28;20050;-66
2022/06/12 03:30:17;;;;;;;1.02;0.40;;;;;;;;;;5026859;28;20100;-66
2022/06/12 03:33:00;;;;;;;1.60;0.50;;;;;;;;;;5025989;28;20049;-67
2022/06/12 03:35:30;;;;;;;2.78;0.75;;;;;;;;;;5041422;28;20073;-68
2022/06/12 03:38:11;;;;;;;1.52;0.55;;;;;;;;;;5026595;28;20500;-69
2022/06/12 03:40:40;;;;;;;1.65;0.50;;;;;;;;;;5025325;28;20037;-67
2022/06/12 03:43:16;;;;;;;2.90;0.63;;;;;;;;;;5026494;28;20607;-68
2022/06/12 03:46:02;;;;;;;5.20;0.65;;;;;;;;;;5023791;28;20129;-68
2022/06/12 03:48:31;;;;;;;3.65;0.60;;;;;;;;;;5029430;28;20048;-66
2022/06/12 03:50:57;;;;;;;3.80;0.73;;;;;;;;;;5027176;28;20087;-66
2022/06/12 03:53:30;;;;;;;2.63;0.70;;;;;;;;;;5026111;28;20858;-65
2022/06/12 03:58:49;;;;;;;2.17;0.80;;;;;;;;;;5023915;28;20117;-66
2022/06/12 04:01:16;;;;;;;4.15;0.82;;;;;;;;;;5039010;28;20050;-65
2022/06/12 04:03:44;;;;;;;2.50;0.80;;;;;;;;;;5022654;28;20097;-65
2022/06/12 04:06:17;;;;;;;2.80;0.90;;;;;;;;;;5026688;28;20033;-65
2022/06/12 04:08:53;;;;;;;2.42;0.68;;;;;;;;;;5040626;28;20041;-65
2022/06/12 04:11:22;;;;;;;3.42;0.82;;;;;;;;;;5027531;28;20517;-65
2022/06/12 04:13:49;;;;;;;2.67;0.60;;;;;;;;;;5023251;28;20050;-66
2022/06/12 04:16:18;;;;;;;4.07;1.00;;;;;;;;;;5015055;28;20099;-66
2022/06/12 04:18:45;;;;;;;4.70;0.80;;;;;;;;;;5003724;28;20565;-67
2022/06/12 04:21:17;;;;;;;3.72;0.90;;;;;;;;;;5004286;28;20508;-68
2022/06/12 04:23:46;;;;;;;4.03;0.82;;;;;;;;;;5019216;28;20060;-66
2022/06/12 04:26:36;;;;;;;2.60;0.90;;;;;;;;;;5048919;28;20044;-68
2022/06/12 04:29:06;;;;;;;7.93;2.50;;;;;;;;;;5039693;28;20033;-68
2022/06/12 04:31:34;;;;;;;9.95;3.15;;;;;;;;;;5049141;28;20040;-67
2022/06/12 04:34:08;;;;;;;5.68;3.00;;;;;;;;;;5048815;28;20051;-67
2022/06/12 04:36:35;;;;;;;5.30;2.03;;;;;;;;;;5048904;28;20035;-67
2022/06/12 04:39:02;;;;;;;4.70;2.00;;;;;;;;;;5045475;28;20114;-67
2022/06/12 04:41:30;;;;;;;5.25;1.48;;;;;;;;;;5045801;28;20519;-67
2022/06/12 04:43:57;;;;;;;4.65;1.63;;;;;;;;;;5047641;28;20121;-67
2022/06/12 04:46:24;;;;;;;5.47;1.20;;;;;;;;;;5046262;28;20040;-66
2022/06/12 04:48:52;;;;;;;5.43;1.00;;;;;;;;;;5046499;28;20041;-66
2022/06/12 04:51:19;;;;;;;3.30;0.90;;;;;;;;;;5047685;28;20697;-66
2022/06/12 04:53:46;;;;;;;3.30;0.90;;;;;;;;;;5046857;28;20067;-66
2022/06/12 04:56:15;;;;;;;5.57;2.17;;;;;;;;;;5048565;28;20036;-67
2022/06/12 04:58:42;;;;;;;7.18;2.63;;;;;;;;;;5046959;28;20041;-67
2022/06/12 05:01:09;;;;;;;7.97;2.92;;;;;;;;;;5019701;28;20060;-67
2022/06/12 05:03:36;;;;;;;6.72;2.50;;;;;;;;;;5048909;28;20748;-67
2022/06/12 05:06:03;;;;;;;6.93;3.13;;;;;;;;;;5049602;28;20033;-67
2022/06/12 05:08:30;;;;;;;6.95;2.20;;;;;;;;;;5047885;28;20044;-67
2022/06/12 05:10:57;;;;;;;4.45;1.90;;;;;;;;;;5048689;28;20071;-67
2022/06/12 05:13:24;;;;;;;4.43;1.40;;;;;;;;;;5048076;28;20151;-67
2022/06/12 05:15:50;;;;;;;3.85;1.55;;;;;;;;;;5050054;28;20062;-67
2022/06/12 05:18:18;;;;;;;4.38;1.70;;;;;;;;;;5047598;28;20045;-68
2022/06/12 05:20:45;;;;;;;4.82;1.48;;;;;;;;;;5050009;28;20554;-68
2022/06/12 05:23:12;;;;;;;5.03;1.42;;;;;;;;;;5048528;28;20844;-68
2022/06/12 05:25:40;;;;;;;8.07;2.20;;;;;;;;;;5031182;28;20041;-68
2022/06/12 05:28:07;;;;;;;6.88;1.92;;;;;;;;;;5018061;28;20038;-66
2022/06/12 05:30:38;;;;;;;5.32;2.08;;;;;;;;;;4995902;28;20046;-67
2022/06/12 05:33:05;;;;;;;6.07;2.55;;;;;;;;;;5009778;28;20068;-69
2022/06/12 05:35:33;;;;;;;7.25;2.20;;;;;;;;;;5005434;28;20037;-66
2022/06/12 05:38:00;;;;;;;5.90;2.38;;;;;;;;;;5019213;28;20549;-66
2022/06/12 05:40:28;;;;;;;5.22;2.08;;;;;;;;;;5008591;28;20038;-65
2022/06/12 05:42:55;;;;;;;4.57;1.65;;;;;;;;;;5014731;28;20042;-66
2022/06/12 05:45:29;;;;;;;4.05;1.23;;;;;;;;;;5005964;28;20041;-67
2022/06/12 05:47:56;;;;;;;6.85;1.45;;;;;;;;;;5006200;28;20049;-66
2022/06/12 05:50:23;;;;;;;6.65;1.38;;;;;;;;;;5000164;28;20034;-67
2022/06/12 05:52:50;;;;;;;9.18;1.65;;;;;;;;;;5002821;28;20128;-67
2022/06/12 05:55:17;;;;;;;4.85;1.38;;;;;;;;;;4985419;28;20034;-67
2022/06/12 05:57:44;;;;;;;3.40;1.02;;;;;;;;;;5003741;28;20069;-67
2022/06/12 06:00:19;;;;;;;4.97;1.90;;;;;;;;;;5004658;28;20034;-66
2022/06/12 06:02:46;;;;;;;4.20;1.90;;;;;;;;;;5003824;28;20085;-67
2022/06/12 06:05:13;;;;;;;5.78;2.15;;;;;;;;;;5005230;28;20052;-66
2022/06/12 06:07:40;;;;;;;6.88;1.40;;;;;;;;;;5004720;28;20621;-67
2022/06/12 06:10:09;;;;;;;7.47;3.17;;;;;;;;;;5007054;28;20507;-66
2022/06/12 06:12:35;;;;;;;7.70;2.33;;;;;;;;;;5014884;28;20599;-66
2022/06/12 06:15:02;;;;;;;7.18;2.28;;;;;;;;;;5007482;28;20140;-66
2022/06/12 06:17:28;;;;;;;6.15;2.58;;;;;;;;;;5015968;28;20030;-65
2022/06/12 06:19:55;;;;;;;6.05;2.28;;;;;;;;;;5008047;28;20597;-67
2022/06/12 06:22:22;;;;;;;4.20;2.05;;;;;;;;;;5008686;28;20145;-66
2022/06/12 06:24:48;;;;;;;6.72;2.15;;;;;;;;;;5003636;28;20096;-66
2022/06/12 06:27:15;;;;;;;5.93;1.98;;;;;;;;;;5010791;28;20048;-66
2022/06/12 06:29:43;;;;;;;4.43;1.70;;;;;;;;;;5016634;28;20033;-67
2022/06/12 06:32:11;;;;;;;5.95;1.98;;;;;;;;;;5008195;28;20154;-67
2022/06/12 06:34:39;;;;;;;5.28;2.00;;;;;;;;;;5006648;28;20124;-67
2022/06/12 06:37:06;;;;;;;5.95;2.33;;;;;;;;;;5006902;28;20428;-66
2022/06/12 06:39:33;;;;;;;6.65;2.10;;;;;;;;;;5007066;28;20040;-66
2022/06/12 06:41:59;;;;;;;4.55;2.00;;;;;;;;;;5007312;28;20137;-68
2022/06/12 06:47:11;;;;;;;7.63;2.20;;;;;;;;;;5008410;28;20076;-66
2022/06/12 06:49:39;;;;;;;7.78;2.40;;;;;;;;;;5019558;28;20147;-66
2022/06/12 06:52:05;;;;;;;9.05;2.65;;;;;;;;;;5008739;28;20053;-66
2022/06/12 06:54:32;;;;;;;10.80;3.30;;;;;;;;;;5002413;28;20041;-65
2022/06/12 06:56:59;;;;;;;7.72;2.47;;;;;;;;;;5009113;28;20048;-65
2022/06/12 06:59:26;;;;;;;3.85;1.80;;;;;;;;;;5007658;28;20481;-65
2022/06/12 07:01:52;;;;;;;6.82;2.08;;;;;;;;;;5005975;28;20049;-65
2022/06/12 07:04:19;;;;;;;7.93;2.20;;;;;;;;;;5006233;28;20044;-66
2022/06/12 07:06:46;;;;;;;6.35;2.17;;;;;;;;;;5007272;28;20056;-66
2022/06/12 07:09:13;;;;;;;6.55;2.40;;;;;;;;;;5004946;28;20380;-66
2022/06/12 07:11:40;;;;;;;4.57;2.03;;;;;;;;;;5005946;28;20049;-66
2022/06/12 07:14:06;;;;;;;6.72;2.13;;;;;;;;;;5021604;28;20144;-66
2022/06/12 07:16:34;;;;;;;7.47;2.45;;;;;;;;;;5006993;28;20038;-66
2022/06/12 07:19:01;;;;;;;5.63;2.40;;;;;;;;;;5004295;28;20540;-66
2022/06/12 07:21:27;;;;;;;5.35;1.90;;;;;;;;;;5007636;28;20042;-66
2022/06/12 07:23:54;;;;;;;5.53;2.20;;;;;;;;;;5011237;28;20038;-65
2022/06/12 07:26:21;;;;;;;4.68;2.20;;;;;;;;;;5047620;28;20039;-66
2022/06/12 07:28:48;;;;;;;8.00;2.20;;;;;;;;;;5047053;28;20036;-65
2022/06/12 07:31:15;;;;;;;4.13;1.60;;;;;;;;;;5051393;28;20102;-65
2022/06/12 07:33:41;;;;;;;6.07;2.05;;;;;;;;;;5050917;28;20123;-65
2022/06/12 07:36:10;;;;;;;4.30;1.92;;;;;;;;;;5051123;28;20501;-65
2022/06/12 07:38:37;;;;;;;4.75;2.25;;;;;;;;;;5047572;28;20052;-65
2022/06/12 07:41:05;;;;;;;5.70;2.15;;;;;;;;;;5047611;28;20049;-65
2022/06/12 07:43:34;;;;;;;4.85;2.20;;;;;;;;;;5062476;28;20147;-66
2022/06/12 07:46:02;;;;;;;4.75;1.75;;;;;;;;;;5045732;28;20508;-64
2022/06/12 07:48:31;;;;;;;4.80;2.30;;;;;;;;;;5059676;28;20040;-66
2022/06/12 07:50:59;;;;;;;5.75;2.08;;;;;;;;;;5038040;28;20041;-66
2022/06/12 07:53:25;;;;;;;6.70;2.10;;;;;;;;;;5045819;28;20039;-66
2022/06/12 07:55:52;;;;;;;5.82;2.17;;;;;;;;;;5045972;28;20037;-66
2022/06/12 07:58:20;;;;;;;5.97;2.03;;;;;;;;;;5047217;28;20056;-66
2022/06/12 08:00:47;;;;;;;5.45;1.70;;;;;;;;;;5040405;28;20094;-66
2022/06/12 08:03:14;;;;;;;4.60;1.80;;;;;;;;;;5043913;28;20048;-66
2022/06/12 08:05:41;;;;;;;4.25;1.58;;;;;;;;;;5040861;28;20052;-66
2022/06/12 08:08:07;;;;;;;4.47;1.50;;;;;;;;;;5025951;28;20493;-65
2022/06/12 08:10:35;;;;;;;3.45;1.42;;;;;;;;;;5009385;28;20050;-65
2022/06/12 08:13:10;;;;;;;3.15;1.42;;;;;;;;;;5028536;28;20090;-65
2022/06/12 08:15:38;;;;;;;4.40;1.42;;;;;;;;;;5022236;28;20041;-66
2022/06/12 08:18:05;;;;;;;4.07;1.20;;;;;;;;;;5020729;28;20115;-65
2022/06/12 08:20:33;;;;;;;3.13;1.27;;;;;;;;;;5020277;28;20033;-65
2022/06/12 08:23:03;;;;;;;3.13;1.33;;;;;;;;;;5038266;28;20051;-66
2022/06/12 08:25:31;;;;;;;6.50;1.50;;;;;;;;;;5023230;28;20044;-66
2022/06/12 08:27:58;;;;;;;7.53;2.05;;;;;;;;;;5023900;28;21449;-66
2022/06/12 08:30:25;;;;;;;3.70;1.70;;;;;;;;;;5023418;28;20047;-66
2022/06/12 08:32:53;;;;;;;3.75;1.80;;;;;;;;;;5026786;28;20045;-66
2022/06/12 08:35:22;;;;;;;9.48;1.83;;;;;;;;;;5024365;28;20474;-66
2022/06/12 08:37:49;;;;;;;4.28;1.77;;;;;;;;;;5024817;28;20536;-66
2022/06/12 08:40:26;;;;;;;4.50;1.80;;;;;;;;;;5030167;28;20033;-66
2022/06/12 08:42:57;;;;;;;5.10;1.95;;;;;;;;;;5020581;28;20088;-66
2022/06/12 08:45:25;;;;;;;4.95;1.80;;;;;;;;;;5005946;28;20049;-66
2022/06/12 08:47:56;;;;;;;4.57;1.83;;;;;;;;;;4983911;28;20046;-66
2022/06/12 08:50:28;;;;;;;3.90;2.03;;;;;;;;;;5021513;28;20044;-66
2022/06/12 08:53:03;;;;;;;4.05;1.70;;;;;;;;;;5025075;28;20504;-66
2022/06/12 08:55:48;;;;;;;4.13;1.70;;;;;;;;;;5025041;28;20115;-66
2022/06/12 08:58:41;;;;;;;4.00;1.70;;;;;;;;;;5025073;28;20566;-67
2022/06/12 09:01:08;;;;;;;4.22;1.52;;;;;;;;;;5018176;28;20109;-66
2022/06/12 09:03:54;;;;;;;4.05;1.55;;;;;;;;;;5005407;28;20115;-66
2022/06/12 09:06:21;;;;;;;4.60;1.30;;;;;;;;;;5006694;28;21713;-65
2022/06/12 09:08:50;;;;;;;4.78;1.48;;;;;;;;;;5006171;28;20034;-65
2022/06/12 09:11:19;;;;;;;3.78;1.55;;;;;;;;;;4992000;28;20041;-65
2022/06/12 09:13:51;;;;;;;4.82;1.77;;;;;;;;;;5005777;28;20103;-65
2022/06/12 09:16:21;;;;;;;3.40;1.30;;;;;;;;;;5004091;28;20065;-66
2022/06/12 09:18:53;;;;;;;3.40;1.40;;;;;;;;;;5004705;28;20279;-66
2022/06/12 09:21:26;;;;;;;2.80;1.20;;;;;;;;;;5003905;28;20030;-67
2022/06/12 09:23:58;;;;;;;3.67;1.35;;;;;;;;;;5008646;28;20052;-67
2022/06/12 09:26:37;;;;;;;2.92;1.10;;;;;;;;;;5022495;28;20176;-67
2022/06/12 09:29:16;;;;;;;3.08;1.33;;;;;;;;;;5029187;28;20651;-67
2022/06/12 09:32:05;;;;;;;7.00;1.30;;;;;;;;;;5034702;28;20083;-67
2022/06/12 09:34:44;;;;;;;3.33;1.10;;;;;;;;;;5033570;28;20048;-67
2022/06/12 09:40:19;;;;;;;6.43;1.15;;;;;;;;;;5034666;28;20068;-66
2022/06/12 09:42:55;;;;;;;3.45;1.23;;;;;;;;;;5022817;28;20049;-66
2022/06/12 09:45:26;;;;;;;6.78;1.27;;;;;;;;;;5031703;28;20465;-66
2022/06/12 09:48:02;;;;;;;4.15;1.27;;;;;;;;;;5039527;28;20053;-66
2022/06/12 09:50:37;;;;;;;3.13;1.02;;;;;;;;;;5024382;28;20080;-66
2022/06/12 09:53:04;;;;;;;3.15;1.00;;;;;;;;;;5025429;28;20049;-65
2022/06/12 09:55:47;;;;;;;3.53;1.00;;;;;;;;;;5032980;28;20094;-66
2022/06/12 09:58:14;;;;;;;;;;;;;;;;;;5027585;28;20054;-65
2022/06/12 10:00:40;;;;;;;2.08;0.77;;;;;;;;;;5032241;28;20215;-67
2022/06/12 10:03:20;;;;;;;3.63;0.90;;;;;;;;;;5035930;28;20047;-67
2022/06/12 10:05:56;;;;;;;2.47;0.90;;;;;;;;;;5037934;28;20043;-66
2022/06/12 10:08:32;;;;;;;2.03;0.85;;;;;;;;;;5034404;28;20075;-66
2022/06/12 10:11:03;;;;;;;2.70;0.80;;;;;;;;;;5015453;28;20040;-66
2022/06/12 10:13:36;;;;;;;2.25;0.80;;;;;;;;;;5038801;28;21863;-66
2022/06/12 10:16:02;;;;;;;;;;;;;;;;;;5043905;28;20045;-66
2022/06/12 10:18:32;;;;;;;2.65;0.73;;;;;;;;;;5032460;28;20733;-66
2022/06/12 10:21:03;;;;;;;4.45;0.65;;;;;;;;;;5030784;28;20164;-66
2022/06/12 10:23:30;;;;;;;2.53;0.70;;;;;;;;;;5022874;28;20147;-65
2022/06/12 10:25:58;;;;;;;2.55;0.80;;;;;;;;;;5024272;28;20097;-66
2022/06/12 10:28:30;;;;;;;1.98;0.60;;;;;;;;;;5006157;28;20645;-66
2022/06/12 10:31:20;;;;;;;2.25;0.70;;;;;;;;;;5022695;28;20044;-66
2022/06/12 10:34:05;;;;;;;2.40;0.70;;;;;;;;;;5011045;28;20503;-66
2022/06/12 10:36:34;;;;;;;3.28;0.93;;;;;;;;;;5021869;28;20502;-66
2022/06/12 10:39:11;;;;;;;4.70;0.70;;;;;;;;;;5022104;28;20067;-66
2022/06/12 10:41:48;;;;;;;2.50;0.73;;;;;;;;;;5022994;28;20125;-66
2022/06/12 10:44:29;;;;;;;1.95;0.60;;;;;;;;;;5031720;28;20586;-65
2022/06/12 10:46:55;;;;;;;2.92;0.73;;;;;;;;;;5015778;28;20055;-66
2022/06/12 10:49:23;;;;;;;4.05;0.60;;;;;;;;;;5028400;28;20048;-66
2022/06/12 10:51:51;;;;;;;2.58;0.75;;;;;;;;;;5020876;28;20128;-66
2022/06/12 10:54:19;;;;;;;2.83;0.70;;;;;;;;;;5023802;28;20034;-66
2022/06/12 10:56:55;;;;;;;4.30;0.85;;;;;;;;;;5039251;28;20041;-66
2022/06/12 10:59:42;;;;;;;3.92;0.70;;;;;;;;;;5020654;28;20536;-66
2022/06/12 11:02:38;;;;;;;3.95;0.70;;;;;;;;;;5023974;28;20140;-66
2022/06/12 11:05:20;;;;;;;3.50;0.90;;;;;;;;;;4976992;28;20042;-66
2022/06/12 11:07:52;;;;;;;2.05;0.70;;;;;;;;;;5014682;28;20039;-65
2022/06/12 11:10:39;;;;;;;2.17;0.60;;;;;;;;;;5038697;28;20072;-66
2022/06/12 11:13:16;;;;;;;3.63;0.95;;;;;;;;;;5039106;28;20045;-66
2022/06/12 11:15:58;;;;;;;2.88;0.60;;;;;;;;;;5029988;28;20045;-67
2022/06/12 11:18:25;;;;;;;3.70;0.75;;;;;;;;;;5006318;28;20050;-67
2022/06/12 11:21:30;;;;;;;4.75;0.95;;;;;;;;;;5020584;28;20045;-67
2022/06/12 11:24:03;;;;;;;7.25;1.02;;;;;;;;;;4959151;28;20105;-67
2022/06/12 11:26:47;;;;;;;2.05;0.70;;;;;;;;;;4968927;28;20499;-67
2022/06/12 11:29:36;;;;;;;2.60;0.75;;;;;;;;;;5006841;28;20134;-67
2022/06/12 11:32:17;;;;;;;3.15;0.88;;;;;;;;;;5027832;28;20045;-67
2022/06/12 11:34:47;;;;;;;3.85;0.95;;;;;;;;;;5045929;28;20090;-67
2022/06/12 11:37:49;;;;;;;3.30;1.00;;;;;;;;;;5048895;28;20052;-67
2022/06/12 11:40:20;;;;;;;6.85;1.52;;;;;;;;;;4997577;28;20058;-67
2022/06/12 11:42:52;;;;;;;3.90;0.90;;;;;;;;;;5017754;28;20052;-64
2022/06/12 11:45:25;;;;;;;4.50;1.10;;;;;;;;;;5034113;28;20553;-64
2022/06/12 11:48:03;;;;;;;2.80;0.80;;;;;;;;;;5032747;28;22073;-65
2022/06/12 11:50:48;;;;;;;5.22;0.80;;;;;;;;;;5035201;28;20424;-65
2022/06/12 11:53:27;;;;;;;2.42;0.73;;;;;;;;;;5039656;28;20037;-64
2022/06/12 11:55:58;;;;;;;3.28;0.80;;;;;;;;;;5040211;28;20112;-64
2022/06/12 11:58:40;;;;;;;1.92;0.60;;;;;;;;;;5022984;28;20037;-64
2022/06/12 12:01:24;;;;;;;2.40;0.80;;;;;;;;;;5025291;28;20125;-64
2022/06/12 12:04:00;;;;;;;2.90;0.93;;;;;;;;;;5030505;28;20049;-61
2022/06/12 12:06:59;;;;;;;2.50;0.80;;;;;;;;;;5027503;28;20501;-64
2022/06/12 12:09:33;;;;;;;4.15;0.73;;;;;;;;;;5012603;28;20037;-63
2022/06/12 12:12:11;;;;;;;2.40;0.60;;;;;;;;;;5045923;28;20053;-62
2022/06/12 12:14:39;;;;;;;4.40;0.90;;;;;;;;;;5044361;28;20051;-64
2022/06/12 12:17:16;;;;;;;3.25;0.68;;;;;;;;;;5046913;28;20084;-61
2022/06/12 12:19:54;;;;;;;2.47;0.73;;;;;;;;;;5030287;28;20127;-63
2022/06/12 12:22:31;;;;;;;2.30;0.60;;;;;;;;;;5044117;28;20064;-65
2022/06/12 12:25:03;;;;;;;2.70;0.70;;;;;;;;;;5044342;28;20103;-64
2022/06/12 12:27:40;;;;;;;2.03;0.60;;;;;;;;;;5042948;28;20547;-64
2022/06/12 12:30:30;;;;;;;1.88;0.52;;;;;;;;;;5041923;28;20047;-63
2022/06/12 12:32:58;;;;;;;1.88;0.50;;;;;;;;;;5042758;28;20158;-64
2022/06/12 12:41:26;;;;;;;2.58;0.70;;;;;;;;;;5038983;28;20048;-63
2022/06/12 12:44:00;;;;;;;1.92;0.63;;;;;;;;;;5041810;28;20080;-63
2022/06/12 12:46:47;;;;;;;3.85;0.60;;;;;;;;;;5040296;28;20040;-62
2022/06/12 12:49:23;;;;;;;2.05;0.70;;;;;;;;;;5043214;28;20048;-62
2022/06/12 12:51:50;;;;;;;3.60;0.65;;;;;;;;;;5020861;28;20073;-61
2022/06/12 12:54:18;;;;;;;1.92;0.60;;;;;;;;;;5032496;28;20075;-61
2022/06/12 12:56:54;;;;;;;1.85;0.60;;;;;;;;;;5029809;28;20645;-61
2022/06/12 12:59:21;;;;;;;2.70;0.60;;;;;;;;;;5030569;28;20458;-61
2022/06/12 13:01:49;;;;;;;2.35;0.60;;;;;;;;;;5036181;28;20045;-63
2022/06/12 13:04:18;;;;;;;1.67;0.55;;;;;;;;;;5026230;28;20044;-62
2022/06/12 13:06:48;;;;;;;1.30;0.50;;;;;;;;;;5012342;28;20080;-62
2022/06/12 13:09:26;;;;;;;1.88;0.70;;;;;;;;;;5026201;28;20045;-61
2022/06/12 13:12:08;;;;;;;2.13;0.57;;;;;;;;;;5024687;28;20041;-62
2022/06/12 13:14:37;;;;;;;3.60;0.70;;;;;;;;;;5024765;28;20140;-61
2022/06/12 13:17:14;;;;;;;2.42;0.60;;;;;;;;;;5024757;28;20115;-62
2022/06/12 13:19:58;;;;;;;1.75;0.50;;;;;;;;;;5023971;28;20037;-61
2022/06/12 13:22:25;;;;;;;1.55;0.50;;;;;;;;;;5037644;28;20049;-64
2022/06/12 13:24:53;;;;;;;1.58;0.50;;;;;;;;;;5018148;28;20450;-62
2022/06/12 13:27:20;;;;;;;1.67;0.50;;;;;;;;;;5000947;28;20038;-62
2022/06/12 13:29:48;;;;;;;2.10;0.60;;;;;;;;;;5002603;28;20034;-61
2022/06/12 13:32:37;;;;;;;2.38;0.60;;;;;;;;;;5011451;28;20095;-62
2022/06/12 13:35:05;;;;;;;2.28;0.60;;;;;;;;;;5012072;28;20073;-63
2022/06/12 13:37:34;;;;;;;2.05;0.60;;;;;;;;;;5014356;28;20037;-62
2022/06/12 13:40:02;;;;;;;2.05;0.50;;;;;;;;;;5017212;28;20073;-62
2022/06/12 13:42:30;;;;;;;2.28;0.60;;;;;;;;;;5002916;28;20058;-62
2022/06/12 13:44:58;;;;;;;2.83;0.60;;;;;;;;;;4983912;28;20586;-63
2022/06/12 13:47:37;;;;;;;1.60;0.52;;;;;;;;;;5001328;28;20399;-63
2022/06/12 13:50:36;;;;;;;4.05;0.55;;;;;;;;;;5001080;28;20085;-63
2022/06/12 13:53:06;;;;;;;3.45;0.68;;;;;;;;;;4993523;28;20061;-62
2022/06/12 13:55:33;;;;;;;1.88;0.50;;;;;;;;;;5023843;28;20674;-62
2022/06/12 13:58:01;;;;;;;2.20;0.50;;;;;;;;;;5024741;28;20433;-63
2022/06/12 14:00:30;;;;;;;2.15;0.50;;;;;;;;;;5022079;28;20037;-63
2022/06/12 14:02:57;;;;;;;1.25;0.40;;;;;;;;;;5007168;28;20049;-63
2022/06/12 14:05:26;;;;;;;2.30;0.57;;;;;;;;;;5021756;28;20081;-63
2022/06/12 14:07:54;;;;;;;0.93;0.40;;;;;;;;;;5021321;28;20071;-63
2022/06/12 14:10:27;;;;;;;1.63;0.40;;;;;;;;;;5021426;28;20099;-63
2022/06/12 14:12:53;;;;;;;1.83;0.55;;;;;;;;;;5023150;28;20037;-60
2022/06/12 14:15:29;;;;;;;2.35;0.60;;;;;;;;;;5022505;28;20062;-61
2022/06/12 14:17:58;;;;;;;2.75;0.40;;;;;;;;;;5022783;28;20148;-61
2022/06/12 14:20:39;;;;;;;2.00;0.50;;;;;;;;;;5022143;28;20038;-61
2022/06/12 14:23:24;;;;;;;2.33;0.47;;;;;;;;;;5016653;28;20052;-62
2022/06/12 14:25:52;;;;;;;1.50;0.60;;;;;;;;;;5039438;28;20094;-63
2022/06/12 14:28:19;;;;;;;1.67;0.50;;;;;;;;;;5041806;28;20037;-65
2022/06/12 14:30:46;;;;;;;4.55;1.05;;;;;;;;;;5041883;28;20468;-64
2022/06/12 14:33:33;;;;;;;3.25;0.68;;;;;;;;;;5043743;28;20179;-65
2022/06/12 14:36:00;;;;;;;1.55;0.50;;;;;;;;;;5041515;28;20355;-64
2022/06/12 14:38:28;;;;;;;4.43;0.63;;;;;;;;;;5042497;28;20071;-63
2022/06/12 14:40:55;;;;;;;1.23;0.50;;;;;;;;;;5043684;28;20044;-63
2022/06/12 14:43:30;;;;;;;2.30;0.43;;;;;;;;;;5043316;28;20068;-63
2022/06/12 14:45:59;;;;;;;1.30;0.47;;;;;;;;;;5044053;28;20837;-63
2022/06/12 14:48:36;;;;;;;0.95;0.40;;;;;;;;;;5048093;28;20041;-63
2022/06/12 14:51:03;;;;;;;1.90;0.50;;;;;;;;;;5048832;28;20049;-63
2022/06/12 14:53:30;;;;;;;1.00;0.40;;;;;;;;;;5029624;28;20032;-63
2022/06/12 14:55:59;;;;;;;1.45;0.50;;;;;;;;;;5031604;28;20033;-63
2022/06/12 14:58:34;;;;;;;1.92;0.50;;;;;;;;;;5047629;28;20072;-63
2022/06/12 15:01:21;;;;;;;2.08;0.50;;;;;;;;;;5048342;28;20040;-64
2022/06/12 15:03:48;;;;;;;1.90;0.50;;;;;;;;;;5037979;28;20812;-64
2022/06/12 15:06:15;;;;;;;1.80;0.50;;;;;;;;;;5047040;28;20147;-62
2022/06/12 15:08:42;;;;;;;2.53;0.63;;;;;;;;;;5035596;28;20129;-62
2022/06/12 15:11:27;;;;;;;1.48;0.50;;;;;;;;;;5046491;28;20447;-62
2022/06/12 15:13:55;;;;;;;1.83;0.50;;;;;;;;;;5046121;28;20045;-61
2022/06/12 15:16:22;;;;;;;1.75;0.50;;;;;;;;;;5045240;28;20045;-62
2022/06/12 15:18:49;;;;;;;2.45;0.50;;;;;;;;;;5047626;28;20046;-61
2022/06/12 15:21:17;;;;;;;1.42;0.40;;;;;;;;;;5046920;28;20045;-62
2022/06/12 15:23:44;;;;;;;1.63;0.45;;;;;;;;;;5046674;28;20203;-62
2022/06/12 15:31:46;;;;;;;1.27;0.50;;;;;;;;;;5047845;28;21867;-62
2022/06/12 15:34:13;;;;;;;1.38;0.40;;;;;;;;;;5048230;28;20052;-62